AUA143P LOWW-LSZH
Flight info
| Callsign | AUA143P |
|---|---|
| Flight time | N/A |
| Altitude | 30000 |
| Route | SOVIL DCT SITNI DCT BAGSI DCT MATIG DCT TRAUN DCT KONIN/N0344F120 L856 NEGRA |
| Aircraft | A321/M-SDE3FGHIRWY/LB1 |
Departure
| Time | 2026-05-05 17:50 |
|---|---|
| Airport | Vienna International Airport (LOWW) |
Arrival
| Time | N/A |
|---|---|
| Airport | Zürich Airport (LSZH) |
| Time | Latitude | Longitude | Altitude | Speed | Heading |
|---|---|---|---|---|---|
| 2026-05-05 17:12 | 48.11654 | 16.56952 | 630 ft | 0 kts | 26° |
| 2026-05-05 17:42 | 48.11653 | 16.56952 | 615 ft | 1 kts | 26° |
| 2026-05-05 17:42 | 48.11632 | 16.56936 | 627 ft | 4 kts | 26° |
| 2026-05-05 17:42 | 48.11612 | 16.56922 | 628 ft | 4 kts | 30° |
| 2026-05-05 17:42 | 48.11595 | 16.56897 | 630 ft | 4 kts | 76° |
| 2026-05-05 17:43 | 48.11597 | 16.56861 | 625 ft | 4 kts | 115° |
| 2026-05-05 17:43 | 48.11602 | 16.56848 | 628 ft | 1 kts | 116° |
| 2026-05-05 17:45 | 48.11598 | 16.56859 | 624 ft | 3 kts | 116° |
| 2026-05-05 17:45 | 48.11585 | 16.56901 | 619 ft | 6 kts | 116° |
| 2026-05-05 17:45 | 48.11561 | 16.56975 | 615 ft | 10 kts | 116° |
| 2026-05-05 17:46 | 48.11528 | 16.57075 | 624 ft | 12 kts | 116° |
| 2026-05-05 17:46 | 48.11487 | 16.57197 | 617 ft | 15 kts | 115° |
| 2026-05-05 17:46 | 48.11443 | 16.57335 | 628 ft | 12 kts | 116° |
| 2026-05-05 17:46 | 48.11451 | 16.57428 | 623 ft | 11 kts | 37° |
| 2026-05-05 17:47 | 48.11531 | 16.57460 | 615 ft | 14 kts | 352° |
| 2026-05-05 17:47 | 48.11631 | 16.57422 | 626 ft | 16 kts | 343° |
| 2026-05-05 17:47 | 48.11745 | 16.57372 | 624 ft | 18 kts | 343° |
| 2026-05-05 17:47 | 48.11871 | 16.57318 | 622 ft | 20 kts | 344° |
| 2026-05-05 17:48 | 48.11972 | 16.57300 | 626 ft | 12 kts | 35° |
| 2026-05-05 17:48 | 48.12008 | 16.57425 | 628 ft | 14 kts | 75° |
| 2026-05-05 17:48 | 48.11997 | 16.57583 | 617 ft | 16 kts | 105° |
| 2026-05-05 17:48 | 48.11965 | 16.57757 | 615 ft | 18 kts | 113° |
| 2026-05-05 17:49 | 48.11863 | 16.57867 | 624 ft | 20 kts | 167° |
| 2026-05-05 17:49 | 48.11694 | 16.57937 | 617 ft | 46 kts | 164° |
| 2026-05-05 17:49 | 48.11151 | 16.58167 | 628 ft | 115 kts | 164° |
| 2026-05-05 17:49 | 48.10167 | 16.58585 | 643 ft | 178 kts | 165° |
| 2026-05-05 17:50 | 48.08878 | 16.59123 | 1444 ft | 197 kts | 166° |
| 2026-05-05 17:50 | 48.07540 | 16.59686 | 2488 ft | 203 kts | 169° |
| 2026-05-05 17:50 | 48.06121 | 16.60244 | 3201 ft | 220 kts | 174° |
| 2026-05-05 17:50 | 48.04544 | 16.59948 | 3673 ft | 241 kts | 208° |
| 2026-05-05 17:51 | 48.03301 | 16.58201 | 4555 ft | 257 kts | 236° |
| 2026-05-05 17:51 | 48.02408 | 16.55869 | 5485 ft | 267 kts | 238° |
| 2026-05-05 17:51 | 48.01475 | 16.53411 | 6384 ft | 278 kts | 237° |
| 2026-05-05 17:51 | 48.00461 | 16.50878 | 7139 ft | 293 kts | 236° |
| 2026-05-05 17:52 | 47.99355 | 16.48233 | 7850 ft | 302 kts | 236° |
| 2026-05-05 17:52 | 47.98318 | 16.45655 | 8509 ft | 279 kts | 240° |
| 2026-05-05 17:52 | 47.97758 | 16.42931 | 8934 ft | 279 kts | 262° |
| 2026-05-05 17:52 | 47.97810 | 16.40013 | 9549 ft | 286 kts | 271° |
| 2026-05-05 17:53 | 47.97982 | 16.37031 | 10213 ft | 289 kts | 271° |
| 2026-05-05 17:53 | 47.98143 | 16.34023 | 10906 ft | 294 kts | 271° |
| 2026-05-05 17:53 | 47.98291 | 16.30835 | 11221 ft | 323 kts | 270° |
| 2026-05-05 17:53 | 47.98441 | 16.27321 | 11392 ft | 356 kts | 271° |
| 2026-05-05 17:54 | 47.98596 | 16.23519 | 11910 ft | 377 kts | 270° |
| 2026-05-05 17:54 | 47.98748 | 16.19509 | 12537 ft | 396 kts | 271° |
| 2026-05-05 17:54 | 47.98910 | 16.15313 | 13151 ft | 412 kts | 271° |
| 2026-05-05 17:54 | 47.99137 | 16.11011 | 13404 ft | 417 kts | 274° |
| 2026-05-05 17:55 | 47.99473 | 16.06721 | 13614 ft | 413 kts | 275° |
| 2026-05-05 17:55 | 47.99816 | 16.02453 | 14061 ft | 413 kts | 274° |
| 2026-05-05 17:55 | 48.00144 | 15.98245 | 14570 ft | 402 kts | 274° |
| 2026-05-05 17:55 | 48.00454 | 15.94216 | 15090 ft | 389 kts | 274° |
| 2026-05-05 17:56 | 48.00754 | 15.90240 | 15648 ft | 385 kts | 274° |
| 2026-05-05 17:56 | 48.01052 | 15.86265 | 16232 ft | 385 kts | 274° |
| 2026-05-05 17:56 | 48.01357 | 15.82281 | 16864 ft | 387 kts | 274° |
| 2026-05-05 17:56 | 48.01662 | 15.78245 | 17589 ft | 396 kts | 274° |
| 2026-05-05 17:57 | 48.01973 | 15.74119 | 18321 ft | 403 kts | 274° |
| 2026-05-05 17:57 | 48.02285 | 15.69922 | 19007 ft | 410 kts | 274° |
| 2026-05-05 17:57 | 48.02598 | 15.65646 | 19713 ft | 417 kts | 274° |
| 2026-05-05 17:57 | 48.02908 | 15.61307 | 20428 ft | 423 kts | 274° |
| 2026-05-05 17:58 | 48.03228 | 15.56905 | 21161 ft | 430 kts | 274° |
| 2026-05-05 17:58 | 48.03557 | 15.52440 | 21919 ft | 435 kts | 274° |
| 2026-05-05 17:58 | 48.03890 | 15.47914 | 22713 ft | 441 kts | 274° |
| 2026-05-05 17:58 | 48.04220 | 15.43332 | 23541 ft | 444 kts | 274° |
| 2026-05-05 17:59 | 48.04546 | 15.38726 | 24331 ft | 446 kts | 273° |
| 2026-05-05 17:59 | 48.04697 | 15.34093 | 25133 ft | 447 kts | 269° |
| 2026-05-05 17:59 | 48.04768 | 15.29500 | 25956 ft | 448 kts | 269° |
| 2026-05-05 17:59 | 48.04833 | 15.24839 | 26820 ft | 449 kts | 269° |
| 2026-05-05 18:00 | 48.04898 | 15.20164 | 27704 ft | 450 kts | 269° |
| 2026-05-05 18:00 | 48.04966 | 15.15477 | 28613 ft | 453 kts | 269° |
| 2026-05-05 18:00 | 48.05037 | 15.10736 | 29306 ft | 460 kts | 268° |
| 2026-05-05 18:00 | 48.05107 | 15.05946 | 29604 ft | 462 kts | 269° |
| 2026-05-05 18:01 | 48.05175 | 15.01139 | 29718 ft | 463 kts | 268° |
| 2026-05-05 18:01 | 48.05297 | 14.91506 | 29714 ft | 463 kts | 268° |
| 2026-05-05 18:02 | 48.05422 | 14.81859 | 29707 ft | 464 kts | 268° |
| 2026-05-05 18:02 | 48.05510 | 14.72214 | 29702 ft | 464 kts | 268° |
| 2026-05-05 18:03 | 48.05564 | 14.64175 | 29706 ft | 465 kts | 268° |
| 2026-05-05 18:03 | 48.05635 | 14.54507 | 29714 ft | 466 kts | 268° |